< < Back
Terminal Aerodrome Forecast


Current Version              Previous Versions:   1  2  3  4  5  6  7  8  9  

Terminal Aerodrome Forecast

876
FTUS42 KFFC 220100 AAA
TAFATL
TAF AMD
KATL 220133Z 2202/2306 33008KT P6SM SKC=

Latest METAR

374
SAUS70 KWBC 220500 RRB
MTRATL
METAR KATL 220452Z 33007KT 10SM CLR 14/08 A3002 RMK AO2 SLP159 T01390083
402500111


USA.gov is the U.S. government's official web portal to all federal, state and local government web resources and services.